sensor_id;sensor_type;location;lat;lon;timestamp;P1;durP1;ratioP1;P2;durP2;ratioP2
19149;SDS011;9707;49.158;8.632;2023-03-31T00:00:08;4.80;;;1.10;;
19149;SDS011;9707;49.158;8.632;2023-03-31T00:02:36;4.25;;;1.40;;
19149;SDS011;9707;49.158;8.632;2023-03-31T00:05:06;4.72;;;1.25;;
19149;SDS011;9707;49.158;8.632;2023-03-31T00:07:32;5.63;;;1.30;;
19149;SDS011;9707;49.158;8.632;2023-03-31T00:09:57;6.50;;;1.17;;
19149;SDS011;9707;49.158;8.632;2023-03-31T00:12:25;4.53;;;1.15;;
19149;SDS011;9707;49.158;8.632;2023-03-31T00:14:51;4.68;;;1.00;;
19149;SDS011;9707;49.158;8.632;2023-03-31T00:17:16;4.57;;;1.13;;
19149;SDS011;9707;49.158;8.632;2023-03-31T00:19:42;4.72;;;1.27;;
19149;SDS011;9707;49.158;8.632;2023-03-31T00:22:07;6.35;;;1.40;;
19149;SDS011;9707;49.158;8.632;2023-03-31T00:24:33;4.55;;;1.20;;
19149;SDS011;9707;49.158;8.632;2023-03-31T00:26:59;5.03;;;1.25;;
19149;SDS011;9707;49.158;8.632;2023-03-31T00:29:26;4.50;;;1.20;;
19149;SDS011;9707;49.158;8.632;2023-03-31T00:31:51;4.80;;;1.08;;
19149;SDS011;9707;49.158;8.632;2023-03-31T00:34:17;4.35;;;1.10;;
19149;SDS011;9707;49.158;8.632;2023-03-31T00:36:42;6.07;;;1.30;;
19149;SDS011;9707;49.158;8.632;2023-03-31T00:39:14;4.43;;;1.13;;
19149;SDS011;9707;49.158;8.632;2023-03-31T00:41:42;4.53;;;1.15;;
19149;SDS011;9707;49.158;8.632;2023-03-31T00:44:18;4.45;;;1.17;;
19149;SDS011;9707;49.158;8.632;2023-03-31T00:49:34;4.93;;;1.50;;
19149;SDS011;9707;49.158;8.632;2023-03-31T00:54:46;3.42;;;0.90;;
19149;SDS011;9707;49.158;8.632;2023-03-31T00:57:15;3.08;;;1.10;;
19149;SDS011;9707;49.158;8.632;2023-03-31T00:59:47;5.70;;;1.30;;
19149;SDS011;9707;49.158;8.632;2023-03-31T01:02:16;5.13;;;1.35;;
19149;SDS011;9707;49.158;8.632;2023-03-31T01:04:45;2.83;;;1.58;;
19149;SDS011;9707;49.158;8.632;2023-03-31T01:07:17;4.15;;;1.02;;
19149;SDS011;9707;49.158;8.632;2023-03-31T01:09:49;5.75;;;1.02;;
19149;SDS011;9707;49.158;8.632;2023-03-31T01:12:19;4.85;;;1.10;;
19149;SDS011;9707;49.158;8.632;2023-03-31T01:14:47;4.30;;;0.90;;
19149;SDS011;9707;49.158;8.632;2023-03-31T01:17:14;6.15;;;1.10;;
19149;SDS011;9707;49.158;8.632;2023-03-31T01:27:56;4.32;;;1.50;;
19149;SDS011;9707;49.158;8.632;2023-03-31T01:33:35;7.28;;;1.30;;
19149;SDS011;9707;49.158;8.632;2023-03-31T01:36:23;3.95;;;1.17;;
19149;SDS011;9707;49.158;8.632;2023-03-31T01:47:58;5.05;;;1.20;;
19149;SDS011;9707;49.158;8.632;2023-03-31T01:50:30;7.72;;;1.20;;
19149;SDS011;9707;49.158;8.632;2023-03-31T01:53:43;2.55;;;0.75;;
19149;SDS011;9707;49.158;8.632;2023-03-31T01:59:07;4.60;;;1.15;;
19149;SDS011;9707;49.158;8.632;2023-03-31T02:01:40;3.00;;;0.93;;
19149;SDS011;9707;49.158;8.632;2023-03-31T02:04:14;2.70;;;0.82;;
19149;SDS011;9707;49.158;8.632;2023-03-31T02:06:45;4.30;;;0.93;;
19149;SDS011;9707;49.158;8.632;2023-03-31T02:09:18;3.63;;;1.10;;
19149;SDS011;9707;49.158;8.632;2023-03-31T02:11:46;3.85;;;0.95;;
19149;SDS011;9707;49.158;8.632;2023-03-31T02:14:14;3.65;;;0.98;;
19149;SDS011;9707;49.158;8.632;2023-03-31T02:16:45;5.18;;;1.05;;
19149;SDS011;9707;49.158;8.632;2023-03-31T02:19:14;5.03;;;1.30;;
19149;SDS011;9707;49.158;8.632;2023-03-31T02:21:42;3.42;;;0.80;;
19149;SDS011;9707;49.158;8.632;2023-03-31T02:24:12;5.22;;;0.85;;
19149;SDS011;9707;49.158;8.632;2023-03-31T02:26:51;5.00;;;1.00;;
19149;SDS011;9707;49.158;8.632;2023-03-31T02:29:20;5.65;;;0.82;;
19149;SDS011;9707;49.158;8.632;2023-03-31T02:31:46;3.42;;;1.02;;
19149;SDS011;9707;49.158;8.632;2023-03-31T02:34:27;5.50;;;0.90;;
19149;SDS011;9707;49.158;8.632;2023-03-31T02:36:53;3.35;;;1.10;;
19149;SDS011;9707;49.158;8.632;2023-03-31T02:39:20;2.90;;;1.00;;
19149;SDS011;9707;49.158;8.632;2023-03-31T02:41:49;1.85;;;0.80;;
19149;SDS011;9707;49.158;8.632;2023-03-31T02:44:15;5.00;;;1.30;;
19149;SDS011;9707;49.158;8.632;2023-03-31T02:46:41;3.13;;;0.90;;
19149;SDS011;9707;49.158;8.632;2023-03-31T02:49:07;3.92;;;1.33;;
19149;SDS011;9707;49.158;8.632;2023-03-31T02:51:37;4.50;;;1.08;;
19149;SDS011;9707;49.158;8.632;2023-03-31T02:54:27;4.70;;;1.05;;
19149;SDS011;9707;49.158;8.632;2023-03-31T03:05:44;4.22;;;1.40;;
19149;SDS011;9707;49.158;8.632;2023-03-31T03:11:25;5.88;;;2.30;;
19149;SDS011;9707;49.158;8.632;2023-03-31T03:16:56;7.13;;;1.20;;
19149;SDS011;9707;49.158;8.632;2023-03-31T03:19:25;3.42;;;1.13;;
19149;SDS011;9707;49.158;8.632;2023-03-31T03:21:50;6.05;;;1.25;;
19149;SDS011;9707;49.158;8.632;2023-03-31T03:24:16;5.70;;;2.15;;
19149;SDS011;9707;49.158;8.632;2023-03-31T03:26:45;4.30;;;1.42;;
19149;SDS011;9707;49.158;8.632;2023-03-31T03:29:12;4.43;;;1.08;;
19149;SDS011;9707;49.158;8.632;2023-03-31T03:31:38;4.20;;;1.15;;
19149;SDS011;9707;49.158;8.632;2023-03-31T03:34:04;4.53;;;1.25;;
19149;SDS011;9707;49.158;8.632;2023-03-31T03:36:30;2.30;;;0.90;;
19149;SDS011;9707;49.158;8.632;2023-03-31T03:38:56;5.10;;;1.35;;
19149;SDS011;9707;49.158;8.632;2023-03-31T03:41:22;4.47;;;1.30;;
19149;SDS011;9707;49.158;8.632;2023-03-31T03:43:47;4.63;;;1.30;;
19149;SDS011;9707;49.158;8.632;2023-03-31T03:46:12;1.98;;;0.85;;
19149;SDS011;9707;49.158;8.632;2023-03-31T03:48:38;4.07;;;0.80;;
19149;SDS011;9707;49.158;8.632;2023-03-31T03:51:03;2.75;;;1.02;;
19149;SDS011;9707;49.158;8.632;2023-03-31T03:53:28;2.35;;;0.77;;
19149;SDS011;9707;49.158;8.632;2023-03-31T03:55:54;4.90;;;1.80;;
19149;SDS011;9707;49.158;8.632;2023-03-31T03:58:19;6.57;;;2.35;;
19149;SDS011;9707;49.158;8.632;2023-03-31T04:00:47;7.93;;;2.30;;
19149;SDS011;9707;49.158;8.632;2023-03-31T04:03:13;4.35;;;1.25;;
19149;SDS011;9707;49.158;8.632;2023-03-31T04:05:38;5.15;;;1.30;;
19149;SDS011;9707;49.158;8.632;2023-03-31T04:08:04;6.28;;;1.65;;
19149;SDS011;9707;49.158;8.632;2023-03-31T04:10:30;5.50;;;1.85;;
19149;SDS011;9707;49.158;8.632;2023-03-31T04:12:55;3.13;;;1.30;;
19149;SDS011;9707;49.158;8.632;2023-03-31T04:15:20;7.28;;;1.45;;
19149;SDS011;9707;49.158;8.632;2023-03-31T04:17:46;2.33;;;1.08;;
19149;SDS011;9707;49.158;8.632;2023-03-31T04:20:14;4.05;;;1.10;;
19149;SDS011;9707;49.158;8.632;2023-03-31T04:22:40;6.43;;;1.92;;
19149;SDS011;9707;49.158;8.632;2023-03-31T04:25:06;6.35;;;2.10;;
19149;SDS011;9707;49.158;8.632;2023-03-31T04:27:34;6.28;;;1.27;;
19149;SDS011;9707;49.158;8.632;2023-03-31T04:30:00;4.20;;;0.95;;
19149;SDS011;9707;49.158;8.632;2023-03-31T04:32:25;2.30;;;1.05;;
19149;SDS011;9707;49.158;8.632;2023-03-31T04:34:52;3.30;;;1.08;;
19149;SDS011;9707;49.158;8.632;2023-03-31T04:37:26;3.20;;;1.20;;
19149;SDS011;9707;49.158;8.632;2023-03-31T04:39:58;3.28;;;1.10;;
19149;SDS011;9707;49.158;8.632;2023-03-31T04:42:28;4.00;;;1.17;;
19149;SDS011;9707;49.158;8.632;2023-03-31T04:44:54;4.00;;;1.10;;
19149;SDS011;9707;49.158;8.632;2023-03-31T04:47:19;3.67;;;1.42;;
19149;SDS011;9707;49.158;8.632;2023-03-31T04:49:44;2.97;;;1.27;;
19149;SDS011;9707;49.158;8.632;2023-03-31T04:52:09;5.15;;;1.25;;
19149;SDS011;9707;49.158;8.632;2023-03-31T04:54:35;4.57;;;1.33;;
19149;SDS011;9707;49.158;8.632;2023-03-31T04:57:00;3.90;;;1.52;;
19149;SDS011;9707;49.158;8.632;2023-03-31T04:59:25;3.83;;;1.40;;
19149;SDS011;9707;49.158;8.632;2023-03-31T05:01:50;4.50;;;1.88;;
19149;SDS011;9707;49.158;8.632;2023-03-31T05:04:16;4.28;;;1.60;;
19149;SDS011;9707;49.158;8.632;2023-03-31T05:06:41;4.82;;;1.85;;
19149;SDS011;9707;49.158;8.632;2023-03-31T05:09:06;5.75;;;1.75;;
19149;SDS011;9707;49.158;8.632;2023-03-31T05:11:33;4.80;;;2.10;;
19149;SDS011;9707;49.158;8.632;2023-03-31T05:13:58;4.85;;;1.98;;
19149;SDS011;9707;49.158;8.632;2023-03-31T05:16:24;5.32;;;1.88;;
19149;SDS011;9707;49.158;8.632;2023-03-31T05:18:49;7.82;;;2.17;;
19149;SDS011;9707;49.158;8.632;2023-03-31T05:21:16;6.20;;;1.58;;
19149;SDS011;9707;49.158;8.632;2023-03-31T05:23:43;4.43;;;1.90;;
19149;SDS011;9707;49.158;8.632;2023-03-31T05:26:09;3.25;;;1.60;;
19149;SDS011;9707;49.158;8.632;2023-03-31T05:28:35;6.90;;;1.98;;
19149;SDS011;9707;49.158;8.632;2023-03-31T05:31:02;3.97;;;1.70;;
19149;SDS011;9707;49.158;8.632;2023-03-31T05:33:28;5.22;;;1.52;;
19149;SDS011;9707;49.158;8.632;2023-03-31T05:35:54;8.07;;;2.00;;
19149;SDS011;9707;49.158;8.632;2023-03-31T05:38:20;4.88;;;1.63;;
19149;SDS011;9707;49.158;8.632;2023-03-31T05:40:45;5.35;;;1.90;;
19149;SDS011;9707;49.158;8.632;2023-03-31T05:43:11;6.82;;;1.90;;
19149;SDS011;9707;49.158;8.632;2023-03-31T05:45:36;12.73;;;6.65;;
19149;SDS011;9707;49.158;8.632;2023-03-31T05:48:01;6.22;;;1.88;;
19149;SDS011;9707;49.158;8.632;2023-03-31T05:50:27;4.50;;;1.80;;
19149;SDS011;9707;49.158;8.632;2023-03-31T05:52:52;3.47;;;1.67;;
19149;SDS011;9707;49.158;8.632;2023-03-31T05:55:18;3.80;;;1.55;;
19149;SDS011;9707;49.158;8.632;2023-03-31T05:57:43;6.15;;;2.05;;
19149;SDS011;9707;49.158;8.632;2023-03-31T06:00:08;5.65;;;1.42;;
19149;SDS011;9707;49.158;8.632;2023-03-31T06:02:35;6.00;;;1.73;;
19149;SDS011;9707;49.158;8.632;2023-03-31T06:05:01;5.90;;;1.75;;
19149;SDS011;9707;49.158;8.632;2023-03-31T06:07:27;4.63;;;2.58;;
19149;SDS011;9707;49.158;8.632;2023-03-31T06:09:52;5.30;;;2.15;;
19149;SDS011;9707;49.158;8.632;2023-03-31T06:12:18;6.97;;;2.35;;
19149;SDS011;9707;49.158;8.632;2023-03-31T06:14:43;7.55;;;2.00;;
19149;SDS011;9707;49.158;8.632;2023-03-31T06:17:08;19.08;;;4.18;;
19149;SDS011;9707;49.158;8.632;2023-03-31T06:19:34;7.63;;;2.78;;
19149;SDS011;9707;49.158;8.632;2023-03-31T06:22:00;33.53;;;5.20;;
19149;SDS011;9707;49.158;8.632;2023-03-31T06:24:25;26.30;;;4.90;;
19149;SDS011;9707;49.158;8.632;2023-03-31T06:26:50;9.05;;;3.05;;
19149;SDS011;9707;49.158;8.632;2023-03-31T06:29:16;16.38;;;4.18;;
19149;SDS011;9707;49.158;8.632;2023-03-31T06:31:41;11.55;;;3.85;;
19149;SDS011;9707;49.158;8.632;2023-03-31T06:34:06;8.55;;;3.28;;
19149;SDS011;9707;49.158;8.632;2023-03-31T06:36:31;8.63;;;3.47;;
19149;SDS011;9707;49.158;8.632;2023-03-31T06:38:57;16.92;;;4.07;;
19149;SDS011;9707;49.158;8.632;2023-03-31T06:41:22;5.38;;;2.45;;
19149;SDS011;9707;49.158;8.632;2023-03-31T06:43:47;9.90;;;3.92;;
19149;SDS011;9707;49.158;8.632;2023-03-31T06:46:13;14.10;;;3.55;;
19149;SDS011;9707;49.158;8.632;2023-03-31T06:48:38;6.00;;;2.78;;
19149;SDS011;9707;49.158;8.632;2023-03-31T06:51:05;5.03;;;2.47;;
19149;SDS011;9707;49.158;8.632;2023-03-31T06:53:31;7.80;;;3.35;;
19149;SDS011;9707;49.158;8.632;2023-03-31T06:55:57;4.55;;;2.92;;
19149;SDS011;9707;49.158;8.632;2023-03-31T06:58:23;5.10;;;2.42;;
19149;SDS011;9707;49.158;8.632;2023-03-31T07:00:48;5.97;;;2.60;;
19149;SDS011;9707;49.158;8.632;2023-03-31T07:03:13;5.18;;;2.15;;
19149;SDS011;9707;49.158;8.632;2023-03-31T07:05:46;4.80;;;2.28;;
19149;SDS011;9707;49.158;8.632;2023-03-31T07:08:12;7.95;;;2.38;;
19149;SDS011;9707;49.158;8.632;2023-03-31T07:10:37;6.47;;;2.05;;
19149;SDS011;9707;49.158;8.632;2023-03-31T07:13:03;5.35;;;2.63;;
19149;SDS011;9707;49.158;8.632;2023-03-31T07:15:28;5.30;;;1.65;;
19149;SDS011;9707;49.158;8.632;2023-03-31T07:17:57;3.47;;;1.70;;
19149;SDS011;9707;49.158;8.632;2023-03-31T07:20:25;3.47;;;1.85;;
19149;SDS011;9707;49.158;8.632;2023-03-31T07:22:51;3.50;;;1.80;;
19149;SDS011;9707;49.158;8.632;2023-03-31T07:25:16;4.60;;;1.75;;
19149;SDS011;9707;49.158;8.632;2023-03-31T07:27:42;3.25;;;1.80;;
19149;SDS011;9707;49.158;8.632;2023-03-31T07:30:09;3.28;;;1.83;;
19149;SDS011;9707;49.158;8.632;2023-03-31T07:32:38;5.78;;;2.10;;
19149;SDS011;9707;49.158;8.632;2023-03-31T07:35:08;5.43;;;2.33;;
19149;SDS011;9707;49.158;8.632;2023-03-31T07:37:39;4.95;;;2.10;;
19149;SDS011;9707;49.158;8.632;2023-03-31T07:40:06;3.60;;;1.83;;
19149;SDS011;9707;49.158;8.632;2023-03-31T07:42:32;8.43;;;2.08;;
19149;SDS011;9707;49.158;8.632;2023-03-31T07:44:58;2.83;;;1.55;;
19149;SDS011;9707;49.158;8.632;2023-03-31T07:47:24;3.13;;;2.10;;
19149;SDS011;9707;49.158;8.632;2023-03-31T07:49:49;2.50;;;1.23;;
19149;SDS011;9707;49.158;8.632;2023-03-31T07:52:14;4.30;;;1.52;;
19149;SDS011;9707;49.158;8.632;2023-03-31T07:54:41;4.65;;;1.65;;
19149;SDS011;9707;49.158;8.632;2023-03-31T07:57:06;3.60;;;1.20;;
19149;SDS011;9707;49.158;8.632;2023-03-31T07:59:32;2.67;;;1.40;;
19149;SDS011;9707;49.158;8.632;2023-03-31T08:01:57;3.50;;;1.20;;
19149;SDS011;9707;49.158;8.632;2023-03-31T08:04:23;4.07;;;1.38;;
19149;SDS011;9707;49.158;8.632;2023-03-31T08:06:48;3.25;;;1.42;;
19149;SDS011;9707;49.158;8.632;2023-03-31T08:09:15;5.07;;;1.17;;
19149;SDS011;9707;49.158;8.632;2023-03-31T08:11:41;3.83;;;1.27;;
19149;SDS011;9707;49.158;8.632;2023-03-31T08:14:07;5.13;;;1.13;;
19149;SDS011;9707;49.158;8.632;2023-03-31T08:16:32;2.05;;;0.95;;
19149;SDS011;9707;49.158;8.632;2023-03-31T08:18:57;3.55;;;1.30;;
19149;SDS011;9707;49.158;8.632;2023-03-31T08:21:22;4.30;;;1.52;;
19149;SDS011;9707;49.158;8.632;2023-03-31T08:23:48;2.63;;;1.05;;
19149;SDS011;9707;49.158;8.632;2023-03-31T08:26:14;2.25;;;0.73;;
19149;SDS011;9707;49.158;8.632;2023-03-31T08:28:45;3.95;;;1.27;;
19149;SDS011;9707;49.158;8.632;2023-03-31T08:31:13;3.88;;;1.40;;
19149;SDS011;9707;49.158;8.632;2023-03-31T08:33:40;2.92;;;1.33;;
19149;SDS011;9707;49.158;8.632;2023-03-31T08:36:06;3.70;;;1.20;;
19149;SDS011;9707;49.158;8.632;2023-03-31T08:38:34;3.63;;;1.10;;
19149;SDS011;9707;49.158;8.632;2023-03-31T08:41:04;3.88;;;1.40;;
19149;SDS011;9707;49.158;8.632;2023-03-31T08:43:32;3.17;;;1.23;;
19149;SDS011;9707;49.158;8.632;2023-03-31T08:46:01;3.65;;;1.10;;
19149;SDS011;9707;49.158;8.632;2023-03-31T08:48:29;3.10;;;0.93;;
19149;SDS011;9707;49.158;8.632;2023-03-31T08:51:00;5.03;;;1.10;;
19149;SDS011;9707;49.158;8.632;2023-03-31T08:54:04;2.97;;;1.20;;
19149;SDS011;9707;49.158;8.632;2023-03-31T08:56:35;4.10;;;1.48;;
19149;SDS011;9707;49.158;8.632;2023-03-31T08:59:04;5.55;;;1.05;;
19149;SDS011;9707;49.158;8.632;2023-03-31T09:07:12;4.20;;;1.10;;
19149;SDS011;9707;49.158;8.632;2023-03-31T09:12:39;4.05;;;1.70;;
19149;SDS011;9707;49.158;8.632;2023-03-31T09:15:28;3.78;;;1.10;;
19149;SDS011;9707;49.158;8.632;2023-03-31T09:17:54;3.35;;;1.25;;
19149;SDS011;9707;49.158;8.632;2023-03-31T09:20:30;3.40;;;0.88;;
19149;SDS011;9707;49.158;8.632;2023-03-31T09:25:56;4.45;;;1.15;;
19149;SDS011;9707;49.158;8.632;2023-03-31T09:28:29;7.60;;;1.33;;
19149;SDS011;9707;49.158;8.632;2023-03-31T09:31:01;4.50;;;1.17;;
19149;SDS011;9707;49.158;8.632;2023-03-31T09:33:32;4.28;;;1.05;;
19149;SDS011;9707;49.158;8.632;2023-03-31T09:35:58;5.15;;;1.27;;
19149;SDS011;9707;49.158;8.632;2023-03-31T09:38:24;5.13;;;1.10;;
19149;SDS011;9707;49.158;8.632;2023-03-31T09:40:53;5.63;;;1.35;;
19149;SDS011;9707;49.158;8.632;2023-03-31T09:43:21;5.03;;;1.17;;
19149;SDS011;9707;49.158;8.632;2023-03-31T09:45:49;3.15;;;1.45;;
19149;SDS011;9707;49.158;8.632;2023-03-31T09:48:15;3.85;;;1.25;;
19149;SDS011;9707;49.158;8.632;2023-03-31T09:50:48;5.65;;;1.90;;
19149;SDS011;9707;49.158;8.632;2023-03-31T09:53:21;6.60;;;1.60;;
19149;SDS011;9707;49.158;8.632;2023-03-31T09:56:03;4.38;;;1.10;;
19149;SDS011;9707;49.158;8.632;2023-03-31T09:58:36;3.00;;;1.08;;
19149;SDS011;9707;49.158;8.632;2023-03-31T10:01:05;8.25;;;1.92;;
19149;SDS011;9707;49.158;8.632;2023-03-31T10:03:40;4.40;;;1.40;;
19149;SDS011;9707;49.158;8.632;2023-03-31T10:06:15;4.65;;;1.30;;
19149;SDS011;9707;49.158;8.632;2023-03-31T10:11:10;6.63;;;1.35;;
19149;SDS011;9707;49.158;8.632;2023-03-31T10:13:52;4.40;;;1.15;;
19149;SDS011;9707;49.158;8.632;2023-03-31T10:18:54;6.97;;;1.70;;
19149;SDS011;9707;49.158;8.632;2023-03-31T10:21:35;4.47;;;1.40;;
19149;SDS011;9707;49.158;8.632;2023-03-31T10:24:02;8.38;;;1.58;;
19149;SDS011;9707;49.158;8.632;2023-03-31T10:26:32;7.30;;;1.52;;
19149;SDS011;9707;49.158;8.632;2023-03-31T10:28:58;2.88;;;0.90;;
19149;SDS011;9707;49.158;8.632;2023-03-31T10:31:24;7.35;;;1.80;;
19149;SDS011;9707;49.158;8.632;2023-03-31T10:33:51;6.15;;;1.85;;
19149;SDS011;9707;49.158;8.632;2023-03-31T10:38:53;5.43;;;1.73;;
19149;SDS011;9707;49.158;8.632;2023-03-31T10:41:20;6.32;;;1.52;;
19149;SDS011;9707;49.158;8.632;2023-03-31T10:43:49;5.68;;;1.67;;
19149;SDS011;9707;49.158;8.632;2023-03-31T10:46:16;6.45;;;1.52;;
19149;SDS011;9707;49.158;8.632;2023-03-31T10:48:42;6.60;;;1.42;;
19149;SDS011;9707;49.158;8.632;2023-03-31T10:53:40;6.28;;;1.40;;
19149;SDS011;9707;49.158;8.632;2023-03-31T11:01:54;4.57;;;0.88;;
19149;SDS011;9707;49.158;8.632;2023-03-31T11:04:37;3.47;;;1.17;;
19149;SDS011;9707;49.158;8.632;2023-03-31T11:12:39;3.05;;;0.68;;
19149;SDS011;9707;49.158;8.632;2023-03-31T11:15:19;5.63;;;0.65;;
19149;SDS011;9707;49.158;8.632;2023-03-31T11:21:23;6.35;;;1.00;;
19149;SDS011;9707;49.158;8.632;2023-03-31T11:29:52;4.65;;;0.90;;
19149;SDS011;9707;49.158;8.632;2023-03-31T11:43:05;3.75;;;0.68;;
19149;SDS011;9707;49.158;8.632;2023-03-31T11:45:40;4.15;;;0.95;;
19149;SDS011;9707;49.158;8.632;2023-03-31T11:48:15;3.45;;;0.68;;
19149;SDS011;9707;49.158;8.632;2023-03-31T11:50:47;2.85;;;0.70;;
19149;SDS011;9707;49.158;8.632;2023-03-31T11:53:18;3.42;;;0.73;;
19149;SDS011;9707;49.158;8.632;2023-03-31T11:55:49;3.67;;;0.77;;
19149;SDS011;9707;49.158;8.632;2023-03-31T11:58:22;1.65;;;0.70;;
19149;SDS011;9707;49.158;8.632;2023-03-31T12:00:52;2.80;;;0.65;;
19149;SDS011;9707;49.158;8.632;2023-03-31T12:03:33;2.08;;;0.50;;
19149;SDS011;9707;49.158;8.632;2023-03-31T12:06:09;3.08;;;0.50;;
19149;SDS011;9707;49.158;8.632;2023-03-31T12:08:43;1.40;;;0.50;;
19149;SDS011;9707;49.158;8.632;2023-03-31T12:16:36;1.50;;;0.70;;
19149;SDS011;9707;49.158;8.632;2023-03-31T12:19:17;2.20;;;0.35;;
19149;SDS011;9707;49.158;8.632;2023-03-31T12:21:59;1.83;;;0.50;;
19149;SDS011;9707;49.158;8.632;2023-03-31T12:24:32;3.70;;;0.70;;
19149;SDS011;9707;49.158;8.632;2023-03-31T12:29:37;2.90;;;1.23;;
19149;SDS011;9707;49.158;8.632;2023-03-31T12:32:17;2.55;;;0.50;;
19149;SDS011;9707;49.158;8.632;2023-03-31T12:34:47;2.97;;;0.60;;
19149;SDS011;9707;49.158;8.632;2023-03-31T12:40:09;2.38;;;0.95;;
19149;SDS011;9707;49.158;8.632;2023-03-31T12:43:05;2.30;;;0.60;;
19149;SDS011;9707;49.158;8.632;2023-03-31T12:46:01;3.15;;;1.02;;
19149;SDS011;9707;49.158;8.632;2023-03-31T12:52:08;2.05;;;0.52;;
19149;SDS011;9707;49.158;8.632;2023-03-31T12:54:46;1.98;;;0.70;;
19149;SDS011;9707;49.158;8.632;2023-03-31T12:57:40;1.98;;;0.77;;
19149;SDS011;9707;49.158;8.632;2023-03-31T13:02:34;2.47;;;0.68;;
19149;SDS011;9707;49.158;8.632;2023-03-31T13:04:59;2.25;;;0.80;;
19149;SDS011;9707;49.158;8.632;2023-03-31T13:08:00;1.33;;;0.40;;
19149;SDS011;9707;49.158;8.632;2023-03-31T13:10:26;2.03;;;0.43;;
19149;SDS011;9707;49.158;8.632;2023-03-31T13:15:28;2.17;;;0.80;;
19149;SDS011;9707;49.158;8.632;2023-03-31T13:17:58;3.25;;;0.75;;
19149;SDS011;9707;49.158;8.632;2023-03-31T13:20:28;2.47;;;0.50;;
19149;SDS011;9707;49.158;8.632;2023-03-31T13:23:06;2.78;;;0.80;;
19149;SDS011;9707;49.158;8.632;2023-03-31T13:25:56;2.35;;;0.80;;
19149;SDS011;9707;49.158;8.632;2023-03-31T13:30:52;2.33;;;1.00;;
19149;SDS011;9707;49.158;8.632;2023-03-31T13:41:16;2.42;;;0.60;;
19149;SDS011;9707;49.158;8.632;2023-03-31T13:46:39;2.42;;;1.13;;
19149;SDS011;9707;49.158;8.632;2023-03-31T14:02:54;2.88;;;0.90;;
19149;SDS011;9707;49.158;8.632;2023-03-31T14:08:32;3.13;;;1.00;;
19149;SDS011;9707;49.158;8.632;2023-03-31T14:11:15;2.65;;;0.80;;
19149;SDS011;9707;49.158;8.632;2023-03-31T14:14:04;3.45;;;0.95;;
19149;SDS011;9707;49.158;8.632;2023-03-31T14:16:37;5.45;;;0.88;;
19149;SDS011;9707;49.158;8.632;2023-03-31T14:21:50;2.65;;;0.93;;
19149;SDS011;9707;49.158;8.632;2023-03-31T14:24:37;3.97;;;0.75;;
19149;SDS011;9707;49.158;8.632;2023-03-31T14:36:16;2.33;;;0.70;;
19149;SDS011;9707;49.158;8.632;2023-03-31T14:38:45;2.80;;;0.77;;
19149;SDS011;9707;49.158;8.632;2023-03-31T14:41:17;2.83;;;0.70;;
19149;SDS011;9707;49.158;8.632;2023-03-31T14:43:46;4.38;;;0.93;;
19149;SDS011;9707;49.158;8.632;2023-03-31T14:46:17;3.42;;;0.75;;
19149;SDS011;9707;49.158;8.632;2023-03-31T14:48:44;2.53;;;0.75;;
19149;SDS011;9707;49.158;8.632;2023-03-31T14:51:12;2.47;;;0.60;;
19149;SDS011;9707;49.158;8.632;2023-03-31T14:53:40;1.40;;;0.68;;
19149;SDS011;9707;49.158;8.632;2023-03-31T14:56:08;2.70;;;0.70;;
19149;SDS011;9707;49.158;8.632;2023-03-31T14:58:39;3.35;;;0.80;;
19149;SDS011;9707;49.158;8.632;2023-03-31T15:01:08;5.00;;;0.70;;
19149;SDS011;9707;49.158;8.632;2023-03-31T15:03:40;3.45;;;1.20;;
19149;SDS011;9707;49.158;8.632;2023-03-31T15:06:06;2.15;;;0.63;;
19149;SDS011;9707;49.158;8.632;2023-03-31T15:08:32;3.55;;;0.60;;
19149;SDS011;9707;49.158;8.632;2023-03-31T15:11:00;1.92;;;0.55;;
19149;SDS011;9707;49.158;8.632;2023-03-31T15:13:34;1.85;;;0.35;;
19149;SDS011;9707;49.158;8.632;2023-03-31T15:16:20;2.13;;;0.63;;
19149;SDS011;9707;49.158;8.632;2023-03-31T15:19:15;3.35;;;0.85;;
19149;SDS011;9707;49.158;8.632;2023-03-31T15:21:43;2.83;;;0.93;;
19149;SDS011;9707;49.158;8.632;2023-03-31T15:24:12;2.45;;;0.60;;
19149;SDS011;9707;49.158;8.632;2023-03-31T15:26:43;1.77;;;0.80;;
19149;SDS011;9707;49.158;8.632;2023-03-31T15:29:16;2.28;;;0.70;;
19149;SDS011;9707;49.158;8.632;2023-03-31T15:31:46;4.68;;;0.80;;
19149;SDS011;9707;49.158;8.632;2023-03-31T15:34:20;2.03;;;0.75;;
19149;SDS011;9707;49.158;8.632;2023-03-31T15:36:52;3.40;;;0.65;;
19149;SDS011;9707;49.158;8.632;2023-03-31T15:39:18;2.00;;;0.45;;
19149;SDS011;9707;49.158;8.632;2023-03-31T15:41:45;1.10;;;0.32;;
19149;SDS011;9707;49.158;8.632;2023-03-31T15:47:16;1.20;;;0.38;;
19149;SDS011;9707;49.158;8.632;2023-03-31T15:49:48;3.10;;;0.52;;
19149;SDS011;9707;49.158;8.632;2023-03-31T15:52:20;1.15;;;0.43;;
19149;SDS011;9707;49.158;8.632;2023-03-31T15:54:46;3.63;;;0.90;;
19149;SDS011;9707;49.158;8.632;2023-03-31T15:57:14;3.08;;;0.60;;
19149;SDS011;9707;49.158;8.632;2023-03-31T15:59:47;2.38;;;0.52;;
19149;SDS011;9707;49.158;8.632;2023-03-31T16:02:16;2.70;;;0.57;;
19149;SDS011;9707;49.158;8.632;2023-03-31T16:04:46;2.35;;;0.80;;
19149;SDS011;9707;49.158;8.632;2023-03-31T16:07:15;2.17;;;0.50;;
19149;SDS011;9707;49.158;8.632;2023-03-31T16:09:59;2.70;;;0.65;;
19149;SDS011;9707;49.158;8.632;2023-03-31T16:15:07;2.83;;;0.70;;
19149;SDS011;9707;49.158;8.632;2023-03-31T16:17:57;3.35;;;0.68;;
19149;SDS011;9707;49.158;8.632;2023-03-31T16:20:27;2.13;;;0.57;;
19149;SDS011;9707;49.158;8.632;2023-03-31T16:22:56;1.33;;;0.50;;
19149;SDS011;9707;49.158;8.632;2023-03-31T16:25:24;2.42;;;0.60;;
19149;SDS011;9707;49.158;8.632;2023-03-31T16:27:52;2.67;;;0.60;;
19149;SDS011;9707;49.158;8.632;2023-03-31T16:30:22;1.30;;;0.40;;
19149;SDS011;9707;49.158;8.632;2023-03-31T16:35:30;1.33;;;0.38;;
19149;SDS011;9707;49.158;8.632;2023-03-31T16:37:59;2.63;;;0.60;;
19149;SDS011;9707;49.158;8.632;2023-03-31T16:40:26;1.55;;;0.40;;
19149;SDS011;9707;49.158;8.632;2023-03-31T16:43:05;1.38;;;0.60;;
19149;SDS011;9707;49.158;8.632;2023-03-31T16:45:54;2.20;;;0.30;;
19149;SDS011;9707;49.158;8.632;2023-03-31T16:48:21;0.60;;;0.40;;
19149;SDS011;9707;49.158;8.632;2023-03-31T16:50:49;1.48;;;0.30;;
19149;SDS011;9707;49.158;8.632;2023-03-31T16:53:17;0.70;;;0.32;;
19149;SDS011;9707;49.158;8.632;2023-03-31T16:55:44;1.83;;;0.57;;
19149;SDS011;9707;49.158;8.632;2023-03-31T16:58:10;1.70;;;0.40;;
19149;SDS011;9707;49.158;8.632;2023-03-31T17:00:35;1.98;;;0.70;;
19149;SDS011;9707;49.158;8.632;2023-03-31T17:03:04;2.83;;;0.45;;
19149;SDS011;9707;49.158;8.632;2023-03-31T17:05:29;2.13;;;0.70;;
19149;SDS011;9707;49.158;8.632;2023-03-31T17:07:57;2.72;;;0.50;;
19149;SDS011;9707;49.158;8.632;2023-03-31T17:10:24;1.60;;;0.43;;
19149;SDS011;9707;49.158;8.632;2023-03-31T17:12:50;4.57;;;0.73;;
19149;SDS011;9707;49.158;8.632;2023-03-31T17:15:15;2.88;;;0.60;;
19149;SDS011;9707;49.158;8.632;2023-03-31T17:17:41;1.40;;;0.52;;
19149;SDS011;9707;49.158;8.632;2023-03-31T17:20:06;3.40;;;0.88;;
19149;SDS011;9707;49.158;8.632;2023-03-31T17:22:33;3.10;;;0.93;;
19149;SDS011;9707;49.158;8.632;2023-03-31T17:24:59;2.05;;;0.63;;
19149;SDS011;9707;49.158;8.632;2023-03-31T17:27:24;4.47;;;0.75;;
19149;SDS011;9707;49.158;8.632;2023-03-31T17:29:51;2.75;;;0.50;;
19149;SDS011;9707;49.158;8.632;2023-03-31T17:32:17;1.75;;;0.60;;
19149;SDS011;9707;49.158;8.632;2023-03-31T17:34:43;2.60;;;0.40;;
19149;SDS011;9707;49.158;8.632;2023-03-31T17:37:08;1.73;;;0.47;;
19149;SDS011;9707;49.158;8.632;2023-03-31T17:39:34;1.75;;;0.50;;
19149;SDS011;9707;49.158;8.632;2023-03-31T17:41:59;1.35;;;0.30;;
19149;SDS011;9707;49.158;8.632;2023-03-31T17:44:24;1.40;;;0.50;;
19149;SDS011;9707;49.158;8.632;2023-03-31T17:46:50;0.80;;;0.47;;
19149;SDS011;9707;49.158;8.632;2023-03-31T17:49:15;2.78;;;0.55;;
19149;SDS011;9707;49.158;8.632;2023-03-31T17:51:41;0.68;;;0.40;;
19149;SDS011;9707;49.158;8.632;2023-03-31T17:54:08;1.75;;;0.70;;
19149;SDS011;9707;49.158;8.632;2023-03-31T17:56:36;1.23;;;0.32;;
19149;SDS011;9707;49.158;8.632;2023-03-31T17:59:02;1.33;;;0.40;;